Time;durP1;ratioP1;P1;durP2;ratioP2;P2;SDS_P1;SDS_P2;PMS_P1;PMS_P2;Temp;Humidity;BMP_temperature;BMP_pressure;BME280_temperature;BME280_humidity;BME280_pressure;Samples;Min_cycle;Max_cycle;Signal;HPM_P1;HPM_P2
2022/05/22 00:02:43;;;;;;;2.47;1.50;;;11.80;99.90;;;;;;4398132;28;659130;-68
2022/05/22 00:05:30;;;;;;;9.53;1.80;;;11.70;99.90;;;;;;4386311;28;658638;-69
2022/05/22 00:08:19;;;;;;;5.07;1.60;;;11.70;99.90;;;;;;4398888;28;658982;-68
2022/05/22 00:11:07;;;;;;;6.07;1.87;;;11.60;99.90;;;;;;4375579;28;659622;-68
2022/05/22 00:13:54;;;;;;;5.93;2.00;;;11.60;99.90;;;;;;4405514;28;658017;-68
2022/05/22 00:16:41;;;;;;;3.67;2.00;;;11.50;99.90;;;;;;4388530;28;658509;-69
2022/05/22 00:19:31;;;;;;;6.37;1.87;;;11.60;99.90;;;;;;4394182;28;659391;-68
2022/05/22 00:22:18;;;;;;;5.73;1.90;;;11.60;99.90;;;;;;4370684;28;658460;-68
2022/05/22 00:25:10;;;;;;;3.33;1.77;;;11.60;99.90;;;;;;4375317;28;659950;-68
2022/05/22 00:27:58;;;;;;;3.67;1.73;;;11.70;99.90;;;;;;4375098;28;659256;-68
2022/05/22 00:30:46;;;;;;;3.80;1.97;;;11.70;99.90;;;;;;4375354;28;659077;-68
2022/05/22 00:33:33;;;;;;;3.60;1.97;;;11.70;99.90;;;;;;4396896;28;659434;-68
2022/05/22 00:36:20;;;;;;;3.57;1.60;;;11.80;99.90;;;;;;4377485;28;658897;-68
2022/05/22 00:39:07;;;;;;;5.93;2.27;;;11.80;99.90;;;;;;4397427;28;658784;-68
2022/05/22 00:41:57;;;;;;;3.87;1.80;;;11.90;99.90;;;;;;4394180;28;658527;-68
2022/05/22 00:44:44;;;;;;;4.77;1.63;;;11.80;99.90;;;;;;4370709;28;658907;-68
2022/05/22 00:47:31;;;;;;;4.57;2.03;;;11.80;99.90;;;;;;4381611;28;658483;-68
2022/05/22 00:50:18;;;;;;;7.90;1.87;;;11.80;99.90;;;;;;4396687;28;659356;-68
2022/05/22 00:53:06;;;;;;;5.07;1.93;;;11.80;99.90;;;;;;4373989;28;658758;-68
2022/05/22 00:55:53;;;;;;;10.63;2.23;;;11.80;99.90;;;;;;4395054;28;659131;-69
2022/05/22 00:58:42;;;;;;;2.90;2.00;;;11.80;99.90;;;;;;4375158;28;659746;-68
2022/05/22 01:01:29;;;;;;;5.97;2.00;;;11.80;99.90;;;;;;4392880;28;659051;-68
2022/05/22 01:04:19;;;;;;;6.17;2.20;;;11.70;99.90;;;;;;4372182;28;658723;-68
2022/05/22 01:07:07;;;;;;;8.02;2.10;;;11.80;99.90;;;;;;4379903;28;659114;-68
2022/05/22 01:09:54;;;;;;;5.90;2.13;;;11.80;99.90;;;;;;4393056;28;658622;-69
2022/05/22 01:12:41;;;;;;;3.83;2.23;;;11.70;99.90;;;;;;4374428;28;658704;-68
2022/05/22 01:15:30;;;;;;;6.37;2.03;;;11.60;99.90;;;;;;4397233;28;659022;-68
2022/05/22 01:18:17;;;;;;;4.57;2.10;;;11.60;99.90;;;;;;4374507;28;659359;-68
2022/05/22 01:21:04;;;;;;;4.33;1.90;;;11.50;99.90;;;;;;4393602;28;658574;-68
2022/05/22 01:23:53;;;;;;;4.20;1.93;;;11.40;99.90;;;;;;4375473;28;658600;-69
2022/05/22 01:26:40;;;;;;;3.50;2.13;;;11.40;99.90;;;;;;4374316;28;659128;-68
2022/05/22 01:29:28;;;;;;;6.60;2.37;;;11.40;99.90;;;;;;4392889;28;659609;-69
2022/05/22 01:32:15;;;;;;;6.65;2.65;;;11.40;99.90;;;;;;4378277;28;658308;-68
2022/05/22 01:35:02;;;;;;;2.97;1.80;;;11.30;99.90;;;;;;4396812;28;658697;-68
2022/05/22 01:37:50;;;;;;;5.23;1.97;;;11.30;99.90;;;;;;4393718;28;658416;-69
2022/05/22 01:40:39;;;;;;;4.37;2.17;;;11.20;99.90;;;;;;4397085;28;659423;-68
2022/05/22 01:43:26;;;;;;;6.70;2.70;;;11.10;99.90;;;;;;4373799;28;658864;-68
2022/05/22 01:46:13;;;;;;;7.13;3.27;;;11.10;99.90;;;;;;4392526;28;659120;-68
2022/05/22 01:49:01;;;;;;;8.33;3.53;;;11.00;99.90;;;;;;4374271;28;658469;-68
2022/05/22 01:51:49;;;;;;;6.47;3.37;;;10.90;99.90;;;;;;4392103;28;659131;-68
2022/05/22 01:54:36;;;;;;;7.10;3.53;;;10.90;99.90;;;;;;4370057;28;658092;-68
2022/05/22 01:57:25;;;;;;;9.07;4.27;;;10.80;99.90;;;;;;4396314;28;658941;-68
2022/05/22 02:00:14;;;;;;;11.13;4.47;;;10.60;99.90;;;;;;4383646;28;659567;-68
2022/05/22 02:03:01;;;;;;;8.07;4.57;;;10.60;99.90;;;;;;4371263;28;659551;-68
2022/05/22 02:05:48;;;;;;;7.77;5.20;;;10.40;99.90;;;;;;4396091;28;659260;-68
2022/05/22 02:08:34;;;;;;;8.17;5.13;;;10.40;99.90;;;;;;4373958;28;658747;-68
2022/05/22 02:11:21;;;;;;;12.47;6.33;;;10.40;99.90;;;;;;4406272;28;658299;-68
2022/05/22 02:14:10;;;;;;;13.93;6.40;;;10.50;99.90;;;;;;4390473;28;659937;-68
2022/05/22 02:16:57;;;;;;;13.65;6.55;;;10.30;99.90;;;;;;4372787;28;659635;-68
2022/05/22 02:19:44;;;;;;;8.90;6.03;;;10.40;99.90;;;;;;4396609;28;659400;-68
2022/05/22 02:22:32;;;;;;;13.10;6.40;;;10.30;99.90;;;;;;4374457;28;658760;-68
2022/05/22 02:25:20;;;;;;;12.70;6.10;;;10.30;99.90;;;;;;4391509;28;659943;-69
2022/05/22 02:28:08;;;;;;;15.80;6.80;;;10.20;99.90;;;;;;4372831;28;660940;-69
2022/05/22 02:30:58;;;;;;;13.35;6.57;;;10.10;99.90;;;;;;4377644;28;659459;-68
2022/05/22 02:33:45;;;;;;;12.67;6.30;;;10.10;99.90;;;;;;4384687;28;660218;-68
2022/05/22 02:36:32;;;;;;;13.60;6.67;;;10.10;99.90;;;;;;4394227;28;659976;-68
2022/05/22 02:39:19;;;;;;;15.13;6.20;;;10.00;99.90;;;;;;4391332;28;660196;-66
2022/05/22 02:42:08;;;;;;;11.73;6.07;;;9.90;99.90;;;;;;4373097;28;660689;-66
2022/05/22 02:44:56;;;;;;;15.53;6.47;;;10.00;99.90;;;;;;4390896;28;659126;-66
2022/05/22 02:47:44;;;;;;;14.53;6.00;;;9.90;99.90;;;;;;4393973;28;659789;-67
2022/05/22 02:50:32;;;;;;;9.47;5.47;;;9.90;99.90;;;;;;4373381;28;658462;-66
2022/05/22 02:53:19;;;;;;;10.60;5.30;;;9.80;99.90;;;;;;4392742;28;657629;-66
2022/05/22 02:56:08;;;;;;;9.73;5.95;;;9.90;99.90;;;;;;4372666;28;658900;-67
2022/05/22 02:58:55;;;;;;;13.70;5.50;;;9.80;99.90;;;;;;4386044;28;658121;-66
2022/05/22 03:01:42;;;;;;;10.83;5.73;;;9.70;99.90;;;;;;4392191;28;660081;-67
2022/05/22 03:04:32;;;;;;;9.87;6.00;;;9.70;99.90;;;;;;4395753;28;657677;-66
2022/05/22 03:07:19;;;;;;;13.57;7.00;;;9.80;99.90;;;;;;4369598;28;657393;-66
2022/05/22 03:10:08;;;;;;;9.63;6.60;;;9.70;99.90;;;;;;4373067;28;658694;-66
2022/05/22 03:12:55;;;;;;;15.53;7.67;;;9.70;99.90;;;;;;4377549;28;657598;-67
2022/05/22 03:15:42;;;;;;;19.07;7.90;;;9.70;99.90;;;;;;4395697;28;659143;-67
2022/05/22 03:18:30;;;;;;;14.57;7.60;;;9.60;99.90;;;;;;4392657;28;658747;-67
2022/05/22 03:21:19;;;;;;;11.33;7.13;;;9.40;99.90;;;;;;4374381;28;659552;-67
2022/05/22 03:24:06;;;;;;;16.03;8.97;;;9.40;99.90;;;;;;4375580;28;659062;-67
2022/05/22 03:26:54;;;;;;;23.03;9.03;;;9.30;99.90;;;;;;4394524;28;658479;-67
2022/05/22 03:29:41;;;;;;;17.60;8.00;;;9.20;99.90;;;;;;4371957;28;658414;-67
2022/05/22 03:32:28;;;;;;;15.83;8.23;;;9.10;99.90;;;;;;4395415;28;658660;-67
2022/05/22 03:35:16;;;;;;;16.03;8.20;;;9.00;99.90;;;;;;4375187;28;658574;-67
2022/05/22 03:38:04;;;;;;;16.27;8.07;;;8.90;99.90;;;;;;4397761;28;659185;-67
2022/05/22 03:40:52;;;;;;;20.37;7.80;;;8.90;99.90;;;;;;4376168;28;659031;-67
2022/05/22 03:43:39;;;;;;;19.30;7.80;;;9.00;99.90;;;;;;4398797;28;658341;-67
2022/05/22 03:46:26;;;;;;;17.07;8.20;;;9.20;99.90;;;;;;4375938;28;658506;-67
2022/05/22 03:49:13;;;;;;;17.00;7.38;;;9.30;99.90;;;;;;4387458;28;659659;-67
2022/05/22 03:52:00;;;;;;;19.90;7.00;;;9.40;99.90;;;;;;4374930;28;658661;-67
2022/05/22 03:54:49;;;;;;;19.50;7.20;;;9.60;99.90;;;;;;4394785;28;659737;-67
2022/05/22 03:57:36;;;;;;;12.93;6.60;;;9.60;99.90;;;;;;4374453;28;659033;-67
2022/05/22 04:00:26;;;;;;;15.03;6.80;;;9.70;99.90;;;;;;4394484;28;659457;-67
2022/05/22 04:03:13;;;;;;;16.23;6.20;;;9.80;99.90;;;;;;4382245;28;659638;-67
2022/05/22 04:06:01;;;;;;;15.67;6.80;;;9.70;99.90;;;;;;4377111;28;658699;-67
2022/05/22 04:08:49;;;;;;;12.83;6.20;;;9.70;99.90;;;;;;4393665;28;660740;-67
2022/05/22 04:11:39;;;;;;;12.33;6.60;;;9.80;99.90;;;;;;4376094;28;658591;-67
2022/05/22 04:14:27;;;;;;;11.07;6.63;;;9.80;99.90;;;;;;4376810;28;658744;-66
2022/05/22 04:17:14;;;;;;;18.00;6.80;;;9.80;99.90;;;;;;4392278;28;658226;-67
2022/05/22 04:20:01;;;;;;;12.17;6.83;;;9.80;99.90;;;;;;4375120;28;659165;-66
2022/05/22 04:25:54;;;;;;;13.10;6.30;;;10.10;99.90;;;;;;4367061;28;660585;-68
2022/05/22 04:28:43;;;;;;;13.47;6.00;;;10.20;99.90;;;;;;4372948;28;660704;-69
2022/05/22 04:31:30;;;;;;;16.40;6.23;;;10.30;99.90;;;;;;4380832;28;659676;-69
2022/05/22 04:34:17;;;;;;;12.17;5.40;;;10.40;99.90;;;;;;4391126;28;661112;-69
2022/05/22 04:37:05;;;;;;;9.30;5.00;;;10.50;99.90;;;;;;4392433;28;659728;-69
2022/05/22 04:39:53;;;;;;;9.90;3.43;;;10.60;99.90;;;;;;4393220;28;658299;-68
2022/05/22 04:42:40;;;;;;;11.83;4.87;;;10.70;99.90;;;;;;4384277;28;658645;-69
2022/05/22 04:45:29;;;;;;;7.63;4.23;;;10.90;99.90;;;;;;4392848;28;661058;-69
2022/05/22 04:48:16;;;;;;;12.00;4.17;;;11.00;99.90;;;;;;4388813;28;658693;-68
2022/05/22 04:51:03;;;;;;;11.97;4.87;;;11.20;99.90;;;;;;4399907;28;659808;-68
2022/05/22 04:53:51;;;;;;;10.47;4.07;;;11.20;99.90;;;;;;4377320;28;659656;-69
2022/05/22 04:56:38;;;;;;;7.80;3.90;;;11.30;99.90;;;;;;4400399;28;660900;-69
2022/05/22 04:59:25;;;;;;;6.17;3.43;;;11.30;99.90;;;;;;4381109;28;659101;-68
2022/05/22 05:02:14;;;;;;;12.67;3.83;;;11.20;99.90;;;;;;4397297;28;659343;-69
2022/05/22 05:05:01;;;;;;;5.93;3.00;;;11.20;99.90;;;;;;4374398;28;659859;-69
2022/05/22 05:07:48;;;;;;;8.40;3.50;;;11.10;99.90;;;;;;4394297;28;659136;-68
2022/05/22 05:10:35;;;;;;;10.87;3.00;;;11.10;99.90;;;;;;4374336;28;658824;-68
2022/05/22 05:13:22;;;;;;;6.47;3.63;;;11.20;99.90;;;;;;4392000;28;660220;-68
2022/05/22 05:16:11;;;;;;;9.87;3.80;;;11.20;99.90;;;;;;4388611;28;658697;-68
2022/05/22 05:19:00;;;;;;;5.90;3.60;;;11.30;99.90;;;;;;4392604;28;659531;-68
2022/05/22 05:21:47;;;;;;;12.13;3.60;;;11.40;99.90;;;;;;4370046;28;660768;-68
2022/05/22 05:24:34;;;;;;;7.00;3.17;;;11.50;99.90;;;;;;4392119;28;659482;-68
2022/05/22 05:27:21;;;;;;;7.55;3.40;;;11.60;99.90;;;;;;4374195;28;658413;-68
2022/05/22 05:30:09;;;;;;;8.53;3.30;;;11.80;99.90;;;;;;4392638;28;659319;-69
2022/05/22 05:32:56;;;;;;;8.40;3.00;;;11.90;99.90;;;;;;4371970;28;658660;-68
2022/05/22 05:35:46;;;;;;;11.97;2.93;;;11.90;99.90;;;;;;4393531;28;658753;-68
2022/05/22 05:38:33;;;;;;;9.40;2.80;;;11.90;99.90;;;;;;4369514;28;661602;-68
2022/05/22 05:41:20;;;;;;;8.73;2.00;;;11.80;99.90;;;;;;4373329;28;658840;-68
2022/05/22 05:44:08;;;;;;;11.27;2.20;;;11.80;99.90;;;;;;4396400;28;659899;-68
2022/05/22 05:46:55;;;;;;;7.63;2.33;;;12.00;99.90;;;;;;4378613;28;660205;-68
2022/05/22 05:49:42;;;;;;;8.03;2.13;;;12.20;99.90;;;;;;4392398;28;660199;-68
2022/05/22 05:52:31;;;;;;;8.43;2.30;;;12.30;99.90;;;;;;4392716;28;658600;-69
2022/05/22 05:55:18;;;;;;;7.77;2.47;;;12.50;99.90;;;;;;4369744;28;659031;-69
2022/05/22 05:58:06;;;;;;;5.23;1.37;;;12.80;99.90;;;;;;4372708;28;658498;-69
2022/05/22 06:00:53;;;;;;;8.60;2.13;;;12.70;99.90;;;;;;4395281;28;659455;-68
2022/05/22 06:03:40;;;;;;;5.37;1.93;;;12.50;99.90;;;;;;4374787;28;659775;-69
2022/05/22 06:06:27;;;;;;;4.47;1.80;;;12.50;99.90;;;;;;4395940;28;659222;-69
2022/05/22 06:09:16;;;;;;;6.67;1.87;;;12.70;99.90;;;;;;4393514;28;658928;-68
2022/05/22 06:12:04;;;;;;;6.03;2.00;;;12.90;99.90;;;;;;4393389;28;659180;-68
2022/05/22 06:14:52;;;;;;;5.93;1.50;;;13.00;99.90;;;;;;4384100;28;659557;-68
2022/05/22 06:17:44;;;;;;;4.93;1.60;;;13.20;99.90;;;;;;4404611;28;659972;-69
2022/05/22 06:20:31;;;;;;;7.73;1.70;;;13.50;99.90;;;;;;4385142;28;658365;-68
2022/05/22 06:23:18;;;;;;;3.13;1.30;;;13.50;99.90;;;;;;4392846;28;659607;-68
2022/05/22 06:26:07;;;;;;;6.63;1.60;;;13.40;99.90;;;;;;4372468;28;658493;-69
2022/05/22 06:28:54;;;;;;;4.60;1.50;;;13.60;99.90;;;;;;4392089;28;658496;-69
2022/05/22 06:31:41;;;;;;;3.87;1.50;;;13.80;99.90;;;;;;4373220;28;659669;-68
2022/05/22 06:34:29;;;;;;;1.23;0.70;;;13.40;99.90;;;;;;4391714;28;658430;-68
2022/05/22 06:37:19;;;;;;;3.40;0.73;;;13.50;99.90;;;;;;4372968;28;658322;-68
2022/05/22 06:40:07;;;;;;;3.63;1.03;;;13.80;99.90;;;;;;4370334;28;658647;-68
2022/05/22 06:42:59;;;;;;;1.83;1.10;;;13.90;99.90;;;;;;4395851;28;658400;-68
2022/05/22 06:45:46;;;;;;;6.80;1.40;;;13.90;99.90;;;;;;4349964;28;660284;-68
2022/05/22 06:48:33;;;;;;;4.50;1.30;;;14.30;99.90;;;;;;4393497;28;659288;-68
2022/05/22 06:51:20;;;;;;;4.27;1.63;;;14.60;99.90;;;;;;4372622;28;658859;-68
2022/05/22 06:54:07;;;;;;;3.33;1.30;;;13.90;93.70;;;;;;4395599;28;659331;-69
2022/05/22 06:56:54;;;;;;;3.10;1.43;;;14.00;99.90;;;;;;4391519;28;658560;-68
2022/05/22 06:59:43;;;;;;;3.77;1.40;;;13.50;96.70;;;;;;4376763;28;660688;-68
2022/05/22 07:02:31;;;;;;;3.47;1.70;;;13.50;99.60;;;;;;4381733;28;658829;-69
2022/05/22 07:05:18;;;;;;;3.67;1.50;;;13.40;99.40;;;;;;4394482;28;660130;-68
2022/05/22 07:08:06;;;;;;;4.60;1.47;;;13.30;99.30;;;;;;4376328;28;658814;-68
2022/05/22 07:13:58;;;;;;;6.50;1.87;;;13.90;97.60;;;;;;4349480;28;658573;-68
2022/05/22 07:16:47;;;;;;;1.80;0.93;;;14.00;90.50;;;;;;4379504;28;658696;-66
2022/05/22 07:19:37;;;;;;;4.10;1.77;;;14.10;88.30;;;;;;4410418;28;658644;-68
2022/05/22 07:22:24;;;;;;;5.63;1.70;;;14.50;98.10;;;;;;4375856;28;658832;-68
2022/05/22 07:25:11;;;;;;;4.20;1.93;;;14.30;96.30;;;;;;4384460;28;658893;-68
2022/05/22 07:27:58;;;;;;;2.37;1.67;;;13.80;97.30;;;;;;4394147;28;658969;-68
2022/05/22 07:30:45;;;;;;;5.30;1.87;;;13.40;97.20;;;;;;4375581;28;658632;-68
2022/05/22 07:33:34;;;;;;;5.03;1.57;;;14.20;96.80;;;;;;4394929;28;659098;-68
2022/05/22 07:36:21;;;;;;;3.30;1.38;;;14.70;86.40;;;;;;4376693;28;658935;-68
2022/05/22 07:39:09;;;;;;;7.20;1.13;;;15.30;82.20;;;;;;4394198;28;659172;-68
2022/05/22 07:41:56;;;;;;;3.90;1.40;;;15.40;71.90;;;;;;4375788;28;658649;-68
2022/05/22 07:44:43;;;;;;;3.30;1.10;;;15.40;67.70;;;;;;4396151;28;659013;-68
2022/05/22 07:47:30;;;;;;;2.33;1.30;;;15.10;69.60;;;;;;4377042;28;658608;-68
2022/05/22 07:50:20;;;;;;;1.53;1.20;;;14.60;71.70;;;;;;4398167;28;659836;-68
2022/05/22 07:53:08;;;;;;;4.37;1.50;;;14.10;75.60;;;;;;4379777;28;659553;-68
2022/05/22 07:55:55;;;;;;;3.17;1.60;;;13.90;78.80;;;;;;4385913;28;658452;-68
2022/05/22 07:58:42;;;;;;;5.63;1.63;;;14.30;80.80;;;;;;4393913;28;659834;-68
2022/05/22 08:01:31;;;;;;;5.67;1.40;;;14.60;83.00;;;;;;4400849;28;659497;-67
2022/05/22 08:04:18;;;;;;;5.00;1.67;;;14.50;79.90;;;;;;4394588;28;659851;-67
2022/05/22 08:07:07;;;;;;;3.83;1.30;;;14.30;80.20;;;;;;4375924;28;659058;-68
2022/05/22 08:09:54;;;;;;;4.77;1.50;;;14.30;79.20;;;;;;4395231;28;658516;-67
2022/05/22 08:12:42;;;;;;;4.20;1.57;;;14.50;81.20;;;;;;4375666;28;658274;-67
2022/05/22 08:15:30;;;;;;;8.90;1.83;;;14.50;77.40;;;;;;4394503;28;659287;-68
2022/05/22 08:18:17;;;;;;;6.27;1.40;;;14.80;76.00;;;;;;4374714;28;659468;-67
2022/05/22 08:21:06;;;;;;;5.10;1.30;;;14.70;74.20;;;;;;4389198;28;658979;-68
2022/05/22 08:23:54;;;;;;;7.23;1.77;;;14.90;74.90;;;;;;4408128;28;659813;-67
2022/05/22 08:26:42;;;;;;;8.30;1.70;;;14.70;79.60;;;;;;4386411;28;659699;-68
2022/05/22 08:29:29;;;;;;;4.00;1.43;;;14.50;76.20;;;;;;4397353;28;658465;-67
2022/05/22 08:32:16;;;;;;;6.57;1.43;;;14.80;75.60;;;;;;4375098;28;658796;-67
2022/05/22 08:35:04;;;;;;;5.63;1.27;;;15.30;72.90;;;;;;4398606;28;659728;-67
2022/05/22 08:37:51;;;;;;;5.32;1.40;;;15.70;67.00;;;;;;4371630;28;658577;-67
2022/05/22 08:41:04;;;;;;;6.00;1.10;;;15.70;66.20;;;;;;4382401;28;659091;-67
2022/05/22 08:43:55;;;;;;;4.03;1.47;;;15.10;65.40;;;;;;4385964;28;658423;-67
2022/05/22 08:46:50;;;;;;;4.47;1.00;;;14.80;72.10;;;;;;4382736;28;659549;-67
2022/05/22 08:49:39;;;;;;;3.27;1.10;;;15.10;66.30;;;;;;4351191;28;659421;-67
2022/05/22 08:52:29;;;;;;;3.47;1.00;;;14.90;65.00;;;;;;4374374;28;658725;-67
2022/05/22 08:55:19;;;;;;;5.13;1.10;;;14.60;62.90;;;;;;4374192;28;658654;-67
2022/05/22 09:01:15;;;;;;;3.00;1.10;;;15.00;65.90;;;;;;4366597;28;659149;-67
2022/05/22 09:04:07;;;;;;;2.63;0.93;;;14.90;65.70;;;;;;4372525;28;659550;-67
2022/05/22 09:07:01;;;;;;;2.40;1.07;;;15.00;64.50;;;;;;4371026;28;658709;-67
2022/05/22 09:09:51;;;;;;;4.37;1.13;;;15.40;62.30;;;;;;4370065;28;658649;-67
2022/05/22 09:12:59;;;;;;;6.60;1.20;;;16.10;63.00;;;;;;4370014;28;658870;-68
2022/05/22 09:15:49;;;;;;;3.70;1.23;;;16.70;61.60;;;;;;4368768;28;658795;-67
2022/05/22 09:18:37;;;;;;;2.17;1.10;;;15.50;59.50;;;;;;4387614;28;659264;-67
2022/05/22 09:21:33;;;;;;;2.97;1.27;;;15.00;64.70;;;;;;4399423;28;659257;-67
2022/05/22 09:24:28;;;;;;;2.30;1.30;;;15.00;64.40;;;;;;4372106;28;659538;-67
2022/05/22 09:27:18;;;;;;;2.53;1.20;;;15.40;64.50;;;;;;4349349;28;658559;-67
2022/05/22 09:30:07;;;;;;;4.20;1.30;;;15.40;63.30;;;;;;4373602;28;658878;-67
2022/05/22 09:33:04;;;;;;;9.33;1.30;;;15.30;64.20;;;;;;4390988;28;658825;-67
2022/05/22 09:35:58;;;;;;;5.43;0.83;;;14.90;66.40;;;;;;4350985;28;659909;-67
2022/05/22 09:38:56;;;;;;;4.00;1.30;;;14.80;65.80;;;;;;4350579;28;658879;-67
2022/05/22 09:41:51;;;;;;;3.67;1.37;;;14.90;64.90;;;;;;4369270;28;659570;-67
2022/05/22 09:45:11;;;;;;;4.87;1.50;;;15.20;64.70;;;;;;4369268;28;659230;-67
2022/05/22 09:48:18;;;;;;;4.90;1.20;;;15.10;64.20;;;;;;4372707;28;658883;-67
2022/05/22 09:51:09;;;;;;;6.37;1.80;;;15.40;65.80;;;;;;4363488;28;658950;-67
2022/05/22 09:54:14;;;;;;;4.07;1.30;;;15.40;65.10;;;;;;4374884;28;659936;-67
2022/05/22 09:57:05;;;;;;;3.07;1.10;;;15.40;66.40;;;;;;4373047;28;658777;-67
2022/05/22 10:00:05;;;;;;;3.27;1.10;;;15.50;64.50;;;;;;4373330;28;659932;-68
2022/05/22 10:02:57;;;;;;;4.77;1.20;;;15.50;63.80;;;;;;4350038;28;658821;-67
2022/05/22 10:05:52;;;;;;;5.27;1.40;;;15.50;64.50;;;;;;4388035;28;659342;-67
2022/05/22 10:08:45;;;;;;;1.60;1.03;;;15.70;64.10;;;;;;4363430;28;658699;-67
2022/05/22 10:11:35;;;;;;;4.27;1.07;;;15.90;62.20;;;;;;4368414;28;658869;-67
2022/05/22 10:14:31;;;;;;;4.50;1.20;;;16.20;61.60;;;;;;4368075;28;659425;-67
2022/05/22 10:17:27;;;;;;;4.50;1.00;;;15.90;60.90;;;;;;4368944;28;658602;-67
2022/05/22 10:20:18;;;;;;;2.57;1.10;;;15.50;65.10;;;;;;4369437;28;658875;-67
2022/05/22 10:23:11;;;;;;;5.17;1.30;;;15.50;67.80;;;;;;4346838;28;658926;-67
2022/05/22 10:26:03;;;;;;;3.00;0.80;;;15.30;66.40;;;;;;4369769;28;659686;-67
2022/05/22 10:28:53;;;;;;;6.60;1.00;;;15.10;66.00;;;;;;4349455;28;658472;-67
2022/05/22 10:31:42;;;;;;;5.37;1.10;;;15.20;65.90;;;;;;4395348;28;659381;-67
2022/05/22 10:34:38;;;;;;;1.57;0.80;;;15.30;66.30;;;;;;4408268;28;659159;-67
2022/05/22 10:37:29;;;;;;;1.80;0.90;;;15.40;63.40;;;;;;4354762;28;659221;-67
2022/05/22 10:40:19;;;;;;;6.23;1.17;;;15.30;63.70;;;;;;4373219;28;658796;-67
2022/05/22 10:43:05;;;;;;;4.37;1.10;;;15.50;66.30;;;;;;4376735;28;658674;-67
2022/05/22 10:45:52;;;;;;;3.47;1.03;;;15.60;64.10;;;;;;4393118;28;658811;-68
2022/05/22 10:48:47;;;;;;;3.50;0.97;;;16.40;62.60;;;;;;4346428;28;1097497;-67
2022/05/22 10:51:34;;;;;;;4.20;1.10;;;16.30;60.00;;;;;;4362882;28;659856;-67
2022/05/22 10:54:23;;;;;;;3.57;1.20;;;16.20;62.10;;;;;;4375690;28;659565;-67
2022/05/22 10:57:15;;;;;;;3.53;0.90;;;16.00;60.40;;;;;;4380606;28;658730;-67
2022/05/22 11:00:11;;;;;;;3.13;1.20;;;16.00;64.10;;;;;;4374702;28;660331;-67
2022/05/22 11:02:59;;;;;;;3.40;0.90;;;17.20;59.80;;;;;;4369282;28;658391;-67
2022/05/22 11:05:51;;;;;;;8.33;1.40;;;17.10;58.60;;;;;;4372253;28;658719;-67
2022/05/22 11:08:38;;;;;;;6.93;1.17;;;17.10;57.90;;;;;;4368979;28;659153;-67
2022/05/22 11:11:26;;;;;;;1.90;0.73;;;16.60;57.60;;;;;;4374092;28;659049;-67
2022/05/22 11:14:17;;;;;;;3.80;1.17;;;15.80;58.80;;;;;;4383830;28;660086;-67
2022/05/22 11:17:11;;;;;;;4.43;1.00;;;15.40;60.00;;;;;;4368800;28;658997;-67
2022/05/22 11:19:59;;;;;;;2.90;0.90;;;15.30;63.70;;;;;;4370136;28;659265;-67
2022/05/22 11:22:59;;;;;;;3.47;1.00;;;15.00;60.70;;;;;;4369985;28;659367;-67
2022/05/22 11:25:48;;;;;;;4.27;1.10;;;14.80;60.90;;;;;;4346410;28;659415;-67
2022/05/22 11:28:53;;;;;;;4.93;1.03;;;14.90;59.90;;;;;;4383137;28;658995;-67
2022/05/22 11:31:49;;;;;;;3.97;1.03;;;15.40;59.60;;;;;;4353381;28;659003;-67
2022/05/22 11:35:15;;;;;;;2.23;0.80;;;15.80;59.90;;;;;;4355703;28;659237;-67
2022/05/22 11:38:16;;;;;;;4.60;0.97;;;15.70;60.60;;;;;;4347911;28;659350;-67
2022/05/22 11:41:06;;;;;;;4.20;0.90;;;15.70;59.50;;;;;;4368902;28;659314;-67
2022/05/22 11:44:19;;;;;;;3.03;0.87;;;15.10;59.90;;;;;;4370717;28;659359;-67
2022/05/22 11:47:18;;;;;;;2.50;0.80;;;15.20;61.00;;;;;;4350922;28;658878;-67
2022/05/22 11:50:10;;;;;;;6.40;1.10;;;15.30;59.80;;;;;;4377183;28;658727;-67
2022/05/22 11:53:04;;;;;;;1.87;0.83;;;15.70;61.50;;;;;;4385870;28;659141;-67
2022/05/22 11:56:02;;;;;;;5.27;1.00;;;16.30;59.50;;;;;;4375517;28;658732;-67
2022/05/22 11:58:51;;;;;;;2.70;0.80;;;17.00;57.20;;;;;;4374797;28;658986;-67
2022/05/22 12:01:41;;;;;;;3.70;1.00;;;17.00;57.10;;;;;;4393447;28;658999;-67
2022/05/22 12:05:06;;;;;;;1.73;0.80;;;16.80;58.20;;;;;;4385073;28;658983;-67
2022/05/22 12:08:14;;;;;;;4.17;0.77;;;16.70;55.80;;;;;;4302642;28;658973;-67
2022/05/22 12:11:03;;;;;;;3.97;0.80;;;16.30;55.30;;;;;;4306418;28;658540;-67
2022/05/22 12:13:52;;;;;;;1.70;0.80;;;15.90;55.70;;;;;;4362760;28;658821;-67
2022/05/22 12:16:42;;;;;;;1.63;0.87;;;15.80;57.70;;;;;;4390799;28;658530;-67
2022/05/22 12:19:34;;;;;;;2.23;0.93;;;16.10;58.10;;;;;;4394986;28;658358;-67
2022/05/22 12:23:07;;;;;;;3.37;0.77;;;15.70;57.70;;;;;;4390871;28;658702;-67
2022/05/22 12:25:31;;;;;;;1.77;0.80;;;15.90;58.60;;;;;;4349656;28;660246;-67
2022/05/22 12:28:28;;;;;;;2.80;1.00;;;16.10;58.60;;;;;;4393693;28;659088;-67
2022/05/22 12:31:18;;;;;;;4.53;0.80;;;16.20;57.70;;;;;;4352773;28;658590;-67
2022/05/22 12:34:08;;;;;;;2.40;0.57;;;16.20;56.90;;;;;;4375543;28;658655;-68
2022/05/22 12:36:55;;;;;;;2.37;0.53;;;16.00;56.10;;;;;;4381155;28;659210;-67
2022/05/22 12:39:48;;;;;;;3.10;0.70;;;15.90;56.50;;;;;;4397795;28;658336;-67
2022/05/22 12:42:37;;;;;;;2.50;0.80;;;15.80;57.30;;;;;;4353078;28;658969;-67
2022/05/22 12:45:25;;;;;;;1.47;0.80;;;15.70;58.40;;;;;;4405024;28;658212;-67
2022/05/22 12:48:14;;;;;;;2.70;0.90;;;16.00;60.20;;;;;;4372125;28;659934;-67
2022/05/22 12:51:11;;;;;;;0.77;0.40;;;16.00;59.70;;;;;;4374211;28;658885;-67
2022/05/22 12:54:08;;;;;;;3.13;0.70;;;15.70;58.40;;;;;;4371359;28;659252;-67
2022/05/22 12:57:13;;;;;;;3.60;0.87;;;15.60;59.60;;;;;;4349636;28;659229;-67
2022/05/22 13:00:01;;;;;;;4.53;0.63;;;15.70;59.40;;;;;;4362653;28;658613;-67
2022/05/22 13:02:48;;;;;;;5.57;0.80;;;15.60;60.50;;;;;;4393431;28;659364;-67
2022/05/22 13:05:35;;;;;;;3.37;1.07;;;15.50;59.40;;;;;;4375107;28;659027;-67
2022/05/22 13:08:25;;;;;;;1.90;0.70;;;15.70;59.30;;;;;;4394133;28;659544;-67
2022/05/22 13:11:13;;;;;;;8.20;1.30;;;16.20;58.80;;;;;;4369944;28;659906;-67
2022/05/22 13:14:02;;;;;;;2.20;0.60;;;16.60;58.60;;;;;;4373913;28;659150;-67
2022/05/22 13:16:51;;;;;;;6.15;0.77;;;17.00;59.50;;;;;;4393334;28;659323;-67
2022/05/22 13:19:48;;;;;;;1.73;0.63;;;17.20;58.80;;;;;;4382562;28;659404;-67
2022/05/22 13:22:36;;;;;;;5.80;0.80;;;17.00;57.10;;;;;;4360313;28;659118;-67
2022/05/22 13:25:29;;;;;;;1.57;0.80;;;17.40;57.90;;;;;;4393773;28;658603;-67
2022/05/22 13:28:21;;;;;;;1.67;0.60;;;17.40;57.70;;;;;;4367395;28;658656;-67
2022/05/22 13:31:16;;;;;;;1.93;0.70;;;16.60;57.00;;;;;;4370059;28;658592;-67
2022/05/22 13:34:18;;;;;;;1.20;0.67;;;16.30;58.40;;;;;;4369725;28;659423;-67
2022/05/22 13:37:07;;;;;;;0.63;0.50;;;16.40;59.00;;;;;;4350456;28;658735;-67
2022/05/22 13:39:58;;;;;;;2.70;0.70;;;16.40;59.50;;;;;;4392575;28;659246;-67
2022/05/22 13:43:29;;;;;;;4.10;0.70;;;16.40;60.50;;;;;;4349442;28;658692;-67
2022/05/22 13:46:50;;;;;;;1.93;0.73;;;16.60;59.00;;;;;;4366100;28;658709;-67
2022/05/22 13:49:47;;;;;;;5.13;1.90;;;16.90;59.40;;;;;;4310965;28;659060;-67
2022/05/22 13:52:40;;;;;;;4.10;0.93;;;17.00;58.20;;;;;;4348138;28;658482;-68
2022/05/22 13:55:27;;;;;;;1.43;0.70;;;17.90;58.40;;;;;;4313682;28;659954;-67
2022/05/22 13:58:21;;;;;;;1.80;1.27;;;18.00;57.90;;;;;;4371724;28;659179;-67
2022/05/22 14:01:11;;;;;;;2.33;0.63;;;17.70;57.80;;;;;;4362722;28;660041;-67
2022/05/22 14:04:01;;;;;;;3.97;0.77;;;17.00;56.40;;;;;;4352275;28;659021;-68
2022/05/22 14:06:48;;;;;;;3.23;0.80;;;16.70;60.10;;;;;;4352480;28;659030;-67
2022/05/22 14:09:38;;;;;;;4.17;0.63;;;16.40;60.90;;;;;;4356757;28;658875;-67
2022/05/22 14:12:27;;;;;;;3.72;0.70;;;16.10;63.20;;;;;;4360284;28;658871;-67
2022/05/22 14:15:17;;;;;;;3.47;1.00;;;15.70;62.80;;;;;;4373430;28;658543;-67
2022/05/22 14:18:12;;;;;;;2.47;0.90;;;15.70;64.20;;;;;;4390088;28;658549;-67
2022/05/22 14:21:02;;;;;;;4.33;1.23;;;15.60;63.70;;;;;;4353258;28;659284;-68
2022/05/22 14:26:51;;;;;;;5.03;1.23;;;15.40;68.00;;;;;;4310060;28;659312;-67
2022/05/22 14:29:39;;;;;;;2.57;1.00;;;15.60;70.60;;;;;;4375768;28;658698;-67
2022/05/22 14:32:26;;;;;;;3.80;0.83;;;15.70;69.70;;;;;;4349752;28;658859;-67
2022/05/22 14:35:15;;;;;;;2.27;1.13;;;15.90;67.90;;;;;;4376847;28;659181;-67
2022/05/22 14:38:11;;;;;;;4.13;1.67;;;16.50;65.10;;;;;;4335354;28;660530;-67
2022/05/22 14:41:00;;;;;;;4.63;1.20;;;17.70;59.30;;;;;;4352321;28;658579;-67
2022/05/22 14:43:48;;;;;;;3.47;1.00;;;16.90;60.80;;;;;;4352437;28;659951;-67
2022/05/22 14:46:41;;;;;;;2.13;1.10;;;17.40;60.40;;;;;;4356482;28;658862;-67